createdAt,value
2023-06-10T00:00:02.723Z,18.68
2023-06-10T00:03:00.732Z,18.59
2023-06-10T00:05:32.370Z,18.50
2023-06-10T00:08:00.834Z,18.41
2023-06-10T00:10:29.066Z,18.35
2023-06-10T00:12:57.330Z,18.27
2023-06-10T00:15:25.487Z,18.26
2023-06-10T00:17:54.303Z,18.25
2023-06-10T00:20:25.984Z,18.22
2023-06-10T00:22:54.028Z,18.16
2023-06-10T00:25:22.278Z,18.13
2023-06-10T00:27:50.334Z,18.13
2023-06-10T00:30:18.889Z,18.13
2023-06-10T00:32:46.964Z,17.78
2023-06-10T00:35:15.100Z,17.65
2023-06-10T00:37:43.275Z,17.72
2023-06-10T00:40:12.026Z,17.78
2023-06-10T00:42:40.200Z,17.85
2023-06-10T00:45:09.147Z,17.95
2023-06-10T00:47:38.635Z,18.00
2023-06-10T00:50:07.664Z,18.03
2023-06-10T00:52:36.716Z,17.96
2023-06-10T00:55:05.431Z,17.94
2023-06-10T00:57:33.825Z,17.99
2023-06-10T01:00:02.020Z,18.07
2023-06-10T01:02:30.597Z,18.11
2023-06-10T01:05:02.726Z,18.13
2023-06-10T01:07:57.606Z,18.20
2023-06-10T01:10:26.026Z,18.27
2023-06-10T01:12:58.101Z,18.32
2023-06-10T01:15:26.700Z,18.40
2023-06-10T01:17:59.413Z,18.46
2023-06-10T01:20:28.365Z,18.50
2023-06-10T01:22:59.296Z,18.55
2023-06-10T01:25:33.762Z,18.51
2023-06-10T01:28:10.963Z,18.55
2023-06-10T01:30:58.089Z,18.59
2023-06-10T01:33:30.662Z,18.67
2023-06-10T01:35:59.295Z,18.68
2023-06-10T01:38:28.291Z,18.65
2023-06-10T01:40:57.204Z,18.66
2023-06-10T01:43:26.477Z,18.68
2023-06-10T01:45:54.425Z,18.68
2023-06-10T01:48:22.512Z,18.63
2023-06-10T01:50:50.594Z,18.62
2023-06-10T01:53:18.775Z,18.60
2023-06-10T01:55:48.354Z,18.61
2023-06-10T01:58:16.634Z,18.64
2023-06-10T02:00:44.879Z,18.64
2023-06-10T02:03:13.471Z,18.65
2023-06-10T02:05:41.579Z,18.66
2023-06-10T02:08:10.127Z,18.68
2023-06-10T02:10:38.513Z,18.66
2023-06-10T02:13:06.797Z,18.62
2023-06-10T02:15:36.194Z,18.62
2023-06-10T02:18:04.535Z,18.64
2023-06-10T02:20:32.833Z,18.66
2023-06-10T02:23:01.107Z,18.64
2023-06-10T02:25:29.143Z,18.54
2023-06-10T02:27:58.891Z,18.51
2023-06-10T02:30:26.974Z,18.50
2023-06-10T02:32:57.398Z,18.47
2023-06-10T02:35:26.588Z,18.20
2023-06-10T02:37:54.889Z,17.96
2023-06-10T02:40:23.177Z,17.89
2023-06-10T02:42:51.300Z,17.85
2023-06-10T02:45:19.789Z,17.78
2023-06-10T02:47:47.827Z,17.75
2023-06-10T02:50:15.890Z,17.72
2023-06-10T02:53:09.296Z,17.73
2023-06-10T02:55:39.249Z,17.71
2023-06-10T02:58:08.879Z,17.66
2023-06-10T03:00:38.191Z,17.62
2023-06-10T03:03:06.845Z,17.60
2023-06-10T03:05:41.571Z,17.66
2023-06-10T03:08:09.589Z,17.79
2023-06-10T03:10:39.354Z,18.12
2023-06-10T03:13:07.946Z,18.39
2023-06-10T03:15:37.545Z,18.42
2023-06-10T03:18:08.070Z,18.42
2023-06-10T03:20:40.929Z,18.50
2023-06-10T03:23:10.910Z,18.59
2023-06-10T03:25:39.214Z,18.62
2023-06-10T03:28:07.870Z,18.64
2023-06-10T03:30:36.936Z,18.70
2023-06-10T03:33:05.181Z,18.75
2023-06-10T03:35:33.762Z,18.82
2023-06-10T03:38:02.511Z,18.93
2023-06-10T03:40:32.967Z,19.04
2023-06-10T03:43:02.018Z,19.18
2023-06-10T03:45:30.690Z,19.37
2023-06-10T03:47:59.469Z,19.66
2023-06-10T03:50:32.781Z,20.00
2023-06-10T03:53:01.518Z,20.39
2023-06-10T03:55:29.868Z,20.94
2023-06-10T03:57:59.387Z,21.34
2023-06-10T04:00:27.488Z,21.63
2023-06-10T04:02:59.445Z,21.94
2023-06-10T04:05:34.305Z,22.06
2023-06-10T04:08:02.870Z,21.94
2023-06-10T04:10:31.184Z,21.73
2023-06-10T04:12:59.691Z,21.60
2023-06-10T04:15:30.425Z,21.48
2023-06-10T04:17:59.430Z,21.29
2023-06-10T04:20:28.555Z,21.06
2023-06-10T04:22:56.739Z,20.93
2023-06-10T04:25:25.569Z,20.83
2023-06-10T04:27:53.598Z,20.80
2023-06-10T04:30:22.429Z,20.81
2023-06-10T04:32:50.739Z,20.69
2023-06-10T04:35:19.097Z,20.56
2023-06-10T04:37:47.699Z,20.54
2023-06-10T04:40:17.513Z,20.54
2023-06-10T04:42:46.677Z,20.57
2023-06-10T04:45:15.225Z,20.62
2023-06-10T04:47:44.817Z,20.65
2023-06-10T04:50:13.252Z,20.47
2023-06-10T04:52:42.802Z,20.63
2023-06-10T04:55:12.297Z,21.07
2023-06-10T04:57:40.633Z,21.59
2023-06-10T05:00:09.606Z,22.11
2023-06-10T05:02:37.613Z,22.34
2023-06-10T05:05:07.508Z,22.53
2023-06-10T05:07:35.837Z,22.73
2023-06-10T05:10:04.409Z,22.90
2023-06-10T05:12:32.469Z,23.11
2023-06-10T05:15:00.626Z,23.22
2023-06-10T05:17:29.689Z,23.21
2023-06-10T05:19:58.084Z,22.75
2023-06-10T05:22:26.276Z,22.28
2023-06-10T05:24:54.685Z,22.22
2023-06-10T05:27:23.528Z,22.23
2023-06-10T05:29:52.760Z,22.54
2023-06-10T05:32:21.063Z,23.17
2023-06-10T05:34:49.303Z,24.11
2023-06-10T05:37:17.265Z,24.77
2023-06-10T05:39:45.186Z,25.14
2023-06-10T05:42:13.294Z,25.51
2023-06-10T05:44:41.539Z,25.80
2023-06-10T05:47:09.883Z,26.00
2023-06-10T05:49:37.913Z,25.73
2023-06-10T05:52:06.188Z,25.45
2023-06-10T05:54:34.186Z,25.37
2023-06-10T05:57:02.185Z,25.28
2023-06-10T05:59:30.154Z,25.20
2023-06-10T06:01:58.308Z,25.24
2023-06-10T06:04:26.264Z,25.22
2023-06-10T06:06:54.461Z,25.46
2023-06-10T06:09:22.431Z,25.76
2023-06-10T06:11:50.349Z,25.95
2023-06-10T06:14:18.619Z,26.17
2023-06-10T06:16:46.721Z,26.24
2023-06-10T06:19:14.943Z,26.21
2023-06-10T06:21:42.901Z,26.32
2023-06-10T06:24:11.137Z,26.63
2023-06-10T06:26:39.348Z,27.03
2023-06-10T06:29:07.317Z,27.06
2023-06-10T06:31:35.443Z,27.15
2023-06-10T06:34:03.794Z,27.57
2023-06-10T06:36:33.046Z,28.09
2023-06-10T06:39:01.080Z,28.02
2023-06-10T06:41:29.698Z,27.59
2023-06-10T06:43:57.700Z,27.59
2023-06-10T06:46:27.134Z,27.81
2023-06-10T06:48:55.316Z,28.27
2023-06-10T06:51:23.791Z,28.89
2023-06-10T06:53:52.458Z,29.27
2023-06-10T06:56:20.421Z,30.20
2023-06-10T06:58:48.575Z,31.59
2023-06-10T07:01:17.086Z,32.62
2023-06-10T07:03:45.235Z,32.34
2023-06-10T07:06:13.902Z,32.13
2023-06-10T07:08:41.835Z,33.01
2023-06-10T07:11:10.033Z,33.44
2023-06-10T07:13:39.955Z,33.84
2023-06-10T07:16:07.953Z,34.05
2023-06-10T07:18:36.045Z,33.27
2023-06-10T07:21:04.156Z,33.09
2023-06-10T07:23:32.377Z,34.01
2023-06-10T07:26:00.962Z,34.43
2023-06-10T07:28:28.956Z,34.63
2023-06-10T07:30:57.250Z,34.58
2023-06-10T07:33:25.324Z,34.55
2023-06-10T07:35:53.554Z,33.86
2023-06-10T07:38:22.005Z,34.36
2023-06-10T07:40:50.016Z,34.69
2023-06-10T07:43:18.251Z,35.36
2023-06-10T07:45:46.274Z,35.80
2023-06-10T07:48:14.965Z,36.01
2023-06-10T07:50:42.907Z,36.30
2023-06-10T07:53:10.896Z,36.46
2023-06-10T07:55:39.089Z,35.24
2023-06-10T07:58:07.270Z,34.74
2023-06-10T08:00:35.262Z,35.40
2023-06-10T08:03:03.838Z,35.95
2023-06-10T08:05:32.105Z,36.57
2023-06-10T08:08:02.747Z,36.57
2023-06-10T08:10:32.106Z,36.03
2023-06-10T08:13:00.217Z,35.83
2023-06-10T08:15:28.467Z,36.26
2023-06-10T08:17:57.777Z,36.16
2023-06-10T08:20:26.185Z,34.63
2023-06-10T08:22:54.359Z,34.82
2023-06-10T08:25:23.404Z,35.49
2023-06-10T08:27:53.214Z,36.19
2023-06-10T08:30:21.411Z,36.68
2023-06-10T08:32:49.591Z,36.44
2023-06-10T08:35:17.552Z,36.18
2023-06-10T08:37:45.545Z,36.40
2023-06-10T08:40:13.890Z,36.66
2023-06-10T08:42:46.802Z,36.92
2023-06-10T08:45:19.428Z,37.07
2023-06-10T08:47:52.154Z,37.17
2023-06-10T08:50:20.556Z,37.24
2023-06-10T08:52:50.160Z,37.43
2023-06-10T08:55:32.878Z,37.29
2023-06-10T08:58:02.125Z,37.01
2023-06-10T09:00:31.517Z,36.86
2023-06-10T09:03:04.411Z,36.85
2023-06-10T09:05:37.838Z,36.89
2023-06-10T09:08:08.123Z,36.62
2023-06-10T09:10:36.152Z,36.73
2023-06-10T09:13:04.237Z,36.09
2023-06-10T09:15:32.232Z,36.12
2023-06-10T09:18:01.139Z,35.87
2023-06-10T09:20:29.234Z,34.95
2023-06-10T09:22:57.328Z,35.03
2023-06-10T09:25:35.881Z,34.85
2023-06-10T09:28:04.284Z,34.00
2023-06-10T09:30:35.903Z,33.69
2023-06-10T09:33:10.518Z,33.78
2023-06-10T09:35:46.321Z,33.91
2023-06-10T09:38:16.619Z,33.84
2023-06-10T09:40:49.853Z,34.23
2023-06-10T09:43:17.784Z,33.48
2023-06-10T09:45:48.700Z,32.42
2023-06-10T09:48:17.104Z,32.97
2023-06-10T09:50:45.903Z,33.58
2023-06-10T09:53:13.906Z,33.67
2023-06-10T09:55:42.784Z,34.12
2023-06-10T09:58:10.772Z,34.33
2023-06-10T10:00:38.819Z,34.95
2023-06-10T10:03:08.191Z,35.44
2023-06-10T10:05:36.545Z,35.72
2023-06-10T10:08:04.964Z,35.69
2023-06-10T10:10:33.054Z,35.50
2023-06-10T10:13:01.738Z,33.37
2023-06-10T10:15:31.260Z,32.99
2023-06-10T10:18:04.263Z,32.67
2023-06-10T10:20:34.844Z,32.43
2023-06-10T10:23:04.853Z,32.79
2023-06-10T10:25:43.853Z,33.57
2023-06-10T10:28:13.065Z,34.00
2023-06-10T10:30:43.289Z,34.04
2023-06-10T10:33:20.015Z,34.47
2023-06-10T10:35:48.534Z,34.70
2023-06-10T10:38:17.282Z,34.64
2023-06-10T10:40:46.075Z,34.35
2023-06-10T10:43:15.690Z,33.94
2023-06-10T10:45:46.423Z,33.82
2023-06-10T10:48:16.324Z,33.88
2023-06-10T10:50:44.686Z,34.27
2023-06-10T10:53:21.152Z,34.36
2023-06-10T10:55:59.302Z,34.52
2023-06-10T10:58:27.369Z,34.09
2023-06-10T11:00:56.022Z,33.20
2023-06-10T11:03:29.112Z,32.15
2023-06-10T11:06:00.313Z,31.06
2023-06-10T11:08:34.697Z,30.21
2023-06-10T11:11:18.511Z,28.83
2023-06-10T11:13:59.339Z,28.02
2023-06-10T11:16:28.613Z,27.55
2023-06-10T11:18:57.724Z,27.31
2023-06-10T11:21:29.063Z,26.99
2023-06-10T11:23:59.617Z,26.85
2023-06-10T11:26:28.165Z,26.55
2023-06-10T11:28:56.447Z,26.35
2023-06-10T11:31:26.182Z,26.11
2023-06-10T11:34:01.954Z,25.98
2023-06-10T11:36:30.614Z,26.15
2023-06-10T11:39:00.285Z,26.34
2023-06-10T11:41:30.144Z,26.56
2023-06-10T11:44:01.973Z,26.40
2023-06-10T11:46:30.177Z,26.53
2023-06-10T11:48:59.439Z,26.28
2023-06-10T11:51:28.746Z,26.29
2023-06-10T11:53:56.968Z,26.62
2023-06-10T11:56:27.007Z,26.75
2023-06-10T11:59:05.639Z,26.66
2023-06-10T12:01:35.034Z,26.80
2023-06-10T12:04:06.213Z,27.17
2023-06-10T12:06:41.322Z,27.58
2023-06-10T12:09:24.108Z,27.46
2023-06-10T12:11:55.505Z,27.01
2023-06-10T12:14:42.078Z,26.47
2023-06-10T12:17:10.273Z,26.17
2023-06-10T12:19:41.630Z,25.73
2023-06-10T12:22:10.174Z,25.55
2023-06-10T12:24:45.815Z,25.41
2023-06-10T12:27:14.239Z,25.20
2023-06-10T12:29:52.747Z,25.33
2023-06-10T12:32:24.177Z,25.55
2023-06-10T12:35:03.216Z,25.95
2023-06-10T12:37:31.496Z,26.33
2023-06-10T12:40:01.253Z,26.18
2023-06-10T12:42:29.428Z,26.46
2023-06-10T12:45:01.479Z,26.76
2023-06-10T12:47:36.340Z,27.08
2023-06-10T12:50:05.521Z,27.41
2023-06-10T12:52:33.809Z,27.56
2023-06-10T12:55:02.444Z,27.65
2023-06-10T12:57:31.293Z,27.86
2023-06-10T13:00:05.308Z,28.06
2023-06-10T13:02:33.966Z,28.21
2023-06-10T13:05:04.043Z,28.23
2023-06-10T13:07:32.475Z,28.19
2023-06-10T13:10:00.494Z,28.06
2023-06-10T13:12:46.305Z,27.65
2023-06-10T13:15:16.379Z,27.10
2023-06-10T13:17:46.858Z,27.25
2023-06-10T13:20:15.231Z,27.48
2023-06-10T13:22:44.122Z,27.71
2023-06-10T13:25:12.793Z,27.69
2023-06-10T13:27:42.544Z,27.62
2023-06-10T13:30:12.104Z,27.71
2023-06-10T13:32:40.488Z,27.93
2023-06-10T13:35:09.662Z,28.17
2023-06-10T13:37:38.433Z,28.36
2023-06-10T13:40:07.465Z,28.46
2023-06-10T13:42:37.050Z,28.56
2023-06-10T13:45:06.308Z,28.82
2023-06-10T13:47:34.349Z,29.00
2023-06-10T13:50:03.416Z,29.11
2023-06-10T13:52:31.514Z,29.21
2023-06-10T13:54:59.575Z,29.38
2023-06-10T13:57:27.597Z,29.63
2023-06-10T13:59:57.531Z,29.85
2023-06-10T14:02:25.866Z,30.06
2023-06-10T14:04:53.996Z,30.30
2023-06-10T14:07:21.958Z,30.64
2023-06-10T14:09:50.001Z,30.85
2023-06-10T14:12:18.144Z,30.95
2023-06-10T14:14:46.267Z,31.04
2023-06-10T14:17:14.333Z,31.19
2023-06-10T14:19:42.557Z,31.45
2023-06-10T14:22:10.844Z,31.73
2023-06-10T14:24:39.482Z,31.88
2023-06-10T14:27:08.135Z,31.90
2023-06-10T14:29:36.782Z,32.04
2023-06-10T14:32:07.462Z,32.28
2023-06-10T14:34:37.475Z,32.41
2023-06-10T14:37:08.746Z,32.53
2023-06-10T14:39:37.422Z,32.37
2023-06-10T14:42:06.169Z,32.40
2023-06-10T14:44:34.061Z,32.16
2023-06-10T14:47:02.042Z,32.40
2023-06-10T14:49:30.133Z,32.58
2023-06-10T14:51:58.559Z,32.42
2023-06-10T14:54:27.006Z,32.23
2023-06-10T14:56:55.392Z,31.87
2023-06-10T14:59:24.882Z,31.55
2023-06-10T15:01:53.246Z,31.64
2023-06-10T15:04:24.541Z,31.43
2023-06-10T15:06:53.216Z,31.18
2023-06-10T15:09:21.744Z,30.82
2023-06-10T15:11:49.966Z,30.38
2023-06-10T15:14:18.746Z,29.91
2023-06-10T15:16:46.883Z,28.68
2023-06-10T15:19:15.340Z,28.24
2023-06-10T15:21:43.521Z,28.16
2023-06-10T15:24:12.290Z,27.99
2023-06-10T15:26:41.295Z,27.66
2023-06-10T15:29:14.015Z,27.24
2023-06-10T15:31:43.034Z,27.46
2023-06-10T15:34:11.331Z,27.54
2023-06-10T15:36:39.581Z,27.63
2023-06-10T15:39:08.309Z,27.66
2023-06-10T15:41:36.625Z,27.61
2023-06-10T15:44:05.033Z,27.38
2023-06-10T15:46:35.457Z,26.84
2023-06-10T15:49:04.166Z,26.50
2023-06-10T15:51:32.477Z,26.12
2023-06-10T15:54:00.443Z,25.74
2023-06-10T15:56:28.669Z,25.21
2023-06-10T15:58:56.848Z,25.03
2023-06-10T16:01:25.106Z,25.14
2023-06-10T16:03:53.339Z,25.20
2023-06-10T16:06:21.533Z,25.11
2023-06-10T16:08:49.491Z,24.99
2023-06-10T16:11:18.324Z,24.95
2023-06-10T16:13:46.515Z,24.96
2023-06-10T16:16:14.989Z,24.91
2023-06-10T16:18:43.252Z,24.87
2023-06-10T16:21:11.335Z,24.68
2023-06-10T16:23:40.198Z,24.56
2023-06-10T16:26:08.390Z,24.40
2023-06-10T16:28:36.397Z,24.32
2023-06-10T16:31:04.869Z,24.22
2023-06-10T16:33:33.315Z,24.01
2023-06-10T16:36:01.508Z,23.83
2023-06-10T16:38:29.724Z,23.68
2023-06-10T16:40:58.612Z,23.57
2023-06-10T16:43:27.853Z,23.52
2023-06-10T16:45:58.269Z,23.45
2023-06-10T16:48:26.595Z,23.35
2023-06-10T16:50:54.708Z,23.29
2023-06-10T16:53:22.767Z,23.23
2023-06-10T16:55:51.012Z,23.17
2023-06-10T16:58:19.065Z,23.14
2023-06-10T17:00:47.462Z,23.10
2023-06-10T17:03:15.680Z,23.06
2023-06-10T17:05:43.910Z,23.04
2023-06-10T17:08:12.164Z,23.01
2023-06-10T17:10:40.292Z,23.00
2023-06-10T17:13:08.256Z,23.01
2023-06-10T17:15:36.472Z,23.00
2023-06-10T17:18:05.291Z,23.01
2023-06-10T17:20:33.923Z,23.02
2023-06-10T17:23:02.625Z,23.03
2023-06-10T17:25:31.209Z,23.00
2023-06-10T17:27:59.351Z,22.97
2023-06-10T17:30:27.698Z,22.96
2023-06-10T17:32:56.295Z,22.95
2023-06-10T17:35:24.539Z,22.89
2023-06-10T17:37:53.109Z,22.69
2023-06-10T17:40:21.079Z,22.43
2023-06-10T17:42:49.019Z,22.27
2023-06-10T17:45:17.269Z,22.12
2023-06-10T17:47:45.476Z,21.97
2023-06-10T17:50:15.737Z,21.94
2023-06-10T17:52:45.264Z,21.88
2023-06-10T17:55:13.411Z,21.83
2023-06-10T17:57:41.930Z,21.81
2023-06-10T18:00:10.114Z,21.78
2023-06-10T18:02:39.644Z,21.67
2023-06-10T18:05:08.529Z,21.56
2023-06-10T18:07:36.806Z,21.44
2023-06-10T18:10:05.011Z,21.39
2023-06-10T18:12:33.304Z,21.32
2023-06-10T18:15:01.295Z,21.33
2023-06-10T18:17:29.774Z,21.16
2023-06-10T18:19:57.879Z,21.03
2023-06-10T18:22:26.099Z,20.88
2023-06-10T18:24:54.750Z,20.73
2023-06-10T18:27:23.001Z,20.60
2023-06-10T18:29:51.223Z,20.44
2023-06-10T18:32:19.613Z,20.29
2023-06-10T18:34:47.833Z,20.15
2023-06-10T18:37:17.064Z,20.01
2023-06-10T18:39:45.052Z,19.98
2023-06-10T18:42:13.216Z,20.02
2023-06-10T18:44:41.380Z,20.01
2023-06-10T18:47:09.299Z,19.97
2023-06-10T18:49:38.752Z,19.92
2023-06-10T18:52:07.066Z,19.87
2023-06-10T18:54:36.167Z,19.92
2023-06-10T18:57:04.484Z,19.96
2023-06-10T18:59:32.641Z,19.97
2023-06-10T19:02:00.809Z,19.99
2023-06-10T19:04:29.350Z,19.99
2023-06-10T19:06:57.295Z,19.93
2023-06-10T19:09:25.453Z,19.90
2023-06-10T19:11:53.488Z,19.91
2023-06-10T19:14:21.707Z,19.91
2023-06-10T19:16:49.812Z,19.88
2023-06-10T19:19:18.393Z,19.82
2023-06-10T19:21:46.518Z,19.76
2023-06-10T19:24:14.725Z,19.74
2023-06-10T19:26:42.860Z,19.77
2023-06-10T19:29:11.087Z,19.76
2023-06-10T19:31:39.173Z,19.75
2023-06-10T19:34:07.460Z,19.74
2023-06-10T19:36:35.555Z,19.77
2023-06-10T19:39:03.865Z,19.88
2023-06-10T19:41:31.833Z,19.99
2023-06-10T19:43:59.798Z,20.03
2023-06-10T19:46:27.811Z,20.07
2023-06-10T19:48:56.262Z,20.13
2023-06-10T19:51:24.514Z,20.22
2023-06-10T19:53:52.640Z,20.30
2023-06-10T19:56:22.982Z,20.32
2023-06-10T19:58:51.190Z,20.33
2023-06-10T20:01:19.513Z,20.35
2023-06-10T20:03:47.668Z,20.37
2023-06-10T20:06:16.344Z,20.39
2023-06-10T20:08:44.434Z,20.40
2023-06-10T20:11:12.774Z,20.40
2023-06-10T20:13:41.182Z,20.37
2023-06-10T20:16:10.590Z,20.33
2023-06-10T20:18:39.204Z,20.31
2023-06-10T20:21:07.228Z,20.25
2023-06-10T20:23:35.491Z,20.16
2023-06-10T20:26:03.763Z,20.12
2023-06-10T20:28:31.878Z,20.04
2023-06-10T20:31:01.485Z,19.90
2023-06-10T20:33:29.605Z,19.70
2023-06-10T20:35:58.053Z,19.49
2023-06-10T20:38:26.240Z,19.33
2023-06-10T20:40:54.376Z,19.29
2023-06-10T20:43:22.371Z,19.35
2023-06-10T20:45:50.779Z,19.44
2023-06-10T20:48:19.141Z,19.49
2023-06-10T20:50:47.101Z,19.54
2023-06-10T20:53:15.114Z,19.54
2023-06-10T20:55:43.114Z,19.47
2023-06-10T20:58:11.656Z,19.44
2023-06-10T21:00:39.610Z,19.42
2023-06-10T21:03:07.817Z,19.40
2023-06-10T21:05:36.376Z,19.40
2023-06-10T21:08:04.609Z,19.34
2023-06-10T21:10:32.688Z,19.24
2023-06-10T21:13:00.820Z,19.23
2023-06-10T21:15:28.879Z,19.22
2023-06-10T21:17:56.970Z,19.23
2023-06-10T21:20:25.002Z,19.25
2023-06-10T21:22:53.194Z,19.26
2023-06-10T21:25:21.405Z,19.26
2023-06-10T21:27:49.906Z,19.30
2023-06-10T21:30:18.012Z,19.33
2023-06-10T21:32:46.270Z,19.36
2023-06-10T21:35:14.490Z,19.39
2023-06-10T21:37:42.444Z,19.44
2023-06-10T21:40:11.101Z,19.46
2023-06-10T21:42:39.090Z,19.43
2023-06-10T21:45:08.325Z,19.39
2023-06-10T21:47:36.951Z,19.36
2023-06-10T21:50:06.344Z,19.34
2023-06-10T21:52:34.406Z,19.33
2023-06-10T21:55:02.626Z,19.35
2023-06-10T21:57:30.904Z,19.37
2023-06-10T21:59:59.035Z,19.36
2023-06-10T22:02:27.527Z,19.34
2023-06-10T22:04:55.825Z,19.34
2023-06-10T22:07:25.564Z,19.29
2023-06-10T22:09:53.782Z,19.25
2023-06-10T22:12:22.007Z,19.16
2023-06-10T22:14:49.930Z,19.14
2023-06-10T22:17:18.300Z,19.09
2023-06-10T22:19:46.401Z,19.06
2023-06-10T22:22:14.558Z,19.06
2023-06-10T22:24:42.569Z,19.05
2023-06-10T22:27:10.702Z,19.00
2023-06-10T22:29:38.877Z,19.00
2023-06-10T22:32:07.420Z,18.94
2023-06-10T22:34:36.357Z,18.82
2023-06-10T22:37:04.796Z,18.75
2023-06-10T22:39:33.365Z,18.70
2023-06-10T22:42:01.475Z,18.67
2023-06-10T22:44:29.499Z,18.62
2023-06-10T22:46:57.826Z,18.51
2023-06-10T22:49:26.244Z,18.47
2023-06-10T22:51:54.258Z,18.43
2023-06-10T22:54:22.145Z,18.34
2023-06-10T22:56:50.254Z,18.27
2023-06-10T22:59:18.198Z,18.31
2023-06-10T23:01:46.200Z,18.33
2023-06-10T23:04:14.720Z,18.33
2023-06-10T23:06:43.088Z,18.34
2023-06-10T23:09:11.641Z,18.29
2023-06-10T23:11:39.856Z,18.23
2023-06-10T23:14:09.705Z,18.21
2023-06-10T23:16:46.754Z,18.18
2023-06-10T23:19:19.397Z,18.21
2023-06-10T23:21:54.922Z,18.27
2023-06-10T23:24:28.713Z,18.27
2023-06-10T23:26:57.413Z,18.23
2023-06-10T23:29:26.266Z,18.25
2023-06-10T23:31:54.886Z,18.27
2023-06-10T23:34:23.317Z,18.26
2023-06-10T23:36:53.869Z,18.22
2023-06-10T23:39:23.517Z,18.21
2023-06-10T23:41:51.950Z,18.23
2023-06-10T23:44:19.949Z,18.25
2023-06-10T23:46:48.113Z,18.23
2023-06-10T23:49:16.143Z,18.21
2023-06-10T23:51:44.155Z,18.24
2023-06-10T23:54:13.919Z,18.23
2023-06-10T23:56:42.231Z,18.21
2023-06-10T23:59:10.539Z,18.18
